sensor_id;sensor_type;location;lat;lon;timestamp;pressure;altitude;pressure_sealevel;temperature;humidity
57192;BME280;43052;52.588;13.396;2022-08-16T00:01:15;100205.25;;;20.71;78.79
57192;BME280;43052;52.588;13.396;2022-08-16T00:03:41;100206.34;;;20.67;78.90
57192;BME280;43052;52.588;13.396;2022-08-16T00:06:06;100209.38;;;20.61;79.10
57192;BME280;43052;52.588;13.396;2022-08-16T00:08:31;100211.34;;;20.57;79.21
57192;BME280;43052;52.588;13.396;2022-08-16T00:10:57;100210.72;;;20.52;79.35
57192;BME280;43052;52.588;13.396;2022-08-16T00:13:22;100212.03;;;20.45;79.44
57192;BME280;43052;52.588;13.396;2022-08-16T00:15:48;100213.22;;;20.39;79.84
57192;BME280;43052;52.588;13.396;2022-08-16T00:18:15;100211.75;;;20.33;79.98
57192;BME280;43052;52.588;13.396;2022-08-16T00:20:42;100213.66;;;20.31;79.98
57192;BME280;43052;52.588;13.396;2022-08-16T00:23:09;100212.53;;;20.35;80.05
57192;BME280;43052;52.588;13.396;2022-08-16T00:25:35;100214.00;;;20.41;79.84
57192;BME280;43052;52.588;13.396;2022-08-16T00:28:00;100213.84;;;20.44;79.90
57192;BME280;43052;52.588;13.396;2022-08-16T00:30:26;100218.94;;;20.47;79.84
57192;BME280;43052;52.588;13.396;2022-08-16T00:32:54;100216.28;;;20.47;79.82
57192;BME280;43052;52.588;13.396;2022-08-16T00:35:23;100221.69;;;20.46;79.92
57192;BME280;43052;52.588;13.396;2022-08-16T00:37:49;100217.22;;;20.46;79.95
57192;BME280;43052;52.588;13.396;2022-08-16T00:40:22;100223.47;;;20.45;79.94
57192;BME280;43052;52.588;13.396;2022-08-16T00:42:48;100218.25;;;20.44;79.84
57192;BME280;43052;52.588;13.396;2022-08-16T00:45:45;100221.84;;;20.43;80.15
57192;BME280;43052;52.588;13.396;2022-08-16T00:48:13;100222.81;;;20.42;79.73
57192;BME280;43052;52.588;13.396;2022-08-16T00:50:40;100224.03;;;20.36;80.00
57192;BME280;43052;52.588;13.396;2022-08-16T00:53:09;100219.72;;;20.33;79.68
57192;BME280;43052;52.588;13.396;2022-08-16T00:55:39;100218.97;;;20.31;79.73
57192;BME280;43052;52.588;13.396;2022-08-16T00:58:06;100227.94;;;20.29;79.85
57192;BME280;43052;52.588;13.396;2022-08-16T01:00:34;100226.31;;;20.26;79.93
57192;BME280;43052;52.588;13.396;2022-08-16T01:03:04;100236.31;;;20.21;80.01
57192;BME280;43052;52.588;13.396;2022-08-16T01:05:30;100234.69;;;20.18;80.08
57192;BME280;43052;52.588;13.396;2022-08-16T01:07:55;100234.16;;;20.12;80.16
57192;BME280;43052;52.588;13.396;2022-08-16T01:10:23;100237.84;;;20.09;80.38
57192;BME280;43052;52.588;13.396;2022-08-16T01:12:49;100242.38;;;20.07;80.22
57192;BME280;43052;52.588;13.396;2022-08-16T01:15:14;100243.56;;;20.01;80.20
57192;BME280;43052;52.588;13.396;2022-08-16T01:17:41;100244.50;;;20.00;80.07
57192;BME280;43052;52.588;13.396;2022-08-16T01:20:08;100250.03;;;19.96;80.25
57192;BME280;43052;52.588;13.396;2022-08-16T01:22:49;100254.81;;;19.89;80.66
57192;BME280;43052;52.588;13.396;2022-08-16T01:25:30;100255.97;;;19.83;80.76
57192;BME280;43052;52.588;13.396;2022-08-16T01:28:01;100263.16;;;19.81;80.66
57192;BME280;43052;52.588;13.396;2022-08-16T01:30:33;100262.28;;;19.81;80.48
57192;BME280;43052;52.588;13.396;2022-08-16T01:33:02;100262.28;;;19.81;80.49
57192;BME280;43052;52.588;13.396;2022-08-16T01:38:20;100265.97;;;19.78;80.49
57192;BME280;43052;52.588;13.396;2022-08-16T01:40:48;100265.97;;;19.78;80.52
57192;BME280;43052;52.588;13.396;2022-08-16T01:43:13;100269.47;;;19.79;80.46
57192;BME280;43052;52.588;13.396;2022-08-16T01:45:39;100270.41;;;19.78;80.51
57192;BME280;43052;52.588;13.396;2022-08-16T01:48:04;100276.81;;;19.73;80.64
57192;BME280;43052;52.588;13.396;2022-08-16T01:50:30;100276.94;;;19.70;80.77
57192;BME280;43052;52.588;13.396;2022-08-16T01:52:57;100276.19;;;19.68;80.70
57192;BME280;43052;52.588;13.396;2022-08-16T01:55:23;100278.66;;;19.71;80.65
57192;BME280;43052;52.588;13.396;2022-08-16T01:57:49;100273.38;;;19.71;80.52
57192;BME280;43052;52.588;13.396;2022-08-16T02:00:16;100271.66;;;19.70;80.60
57192;BME280;43052;52.588;13.396;2022-08-16T02:02:42;100270.94;;;19.67;80.42
57192;BME280;43052;52.588;13.396;2022-08-16T02:05:09;100264.19;;;19.61;80.45
57192;BME280;43052;52.588;13.396;2022-08-16T02:07:35;100264.25;;;19.60;80.45
57192;BME280;43052;52.588;13.396;2022-08-16T02:10:02;100253.09;;;19.53;80.52
57192;BME280;43052;52.588;13.396;2022-08-16T02:12:29;100267.13;;;19.55;80.37
57192;BME280;43052;52.588;13.396;2022-08-16T02:14:55;100250.75;;;19.47;80.50
57192;BME280;43052;52.588;13.396;2022-08-16T02:17:20;100275.09;;;19.55;80.34
57192;BME280;43052;52.588;13.396;2022-08-16T02:19:45;100272.44;;;19.55;80.46
57192;BME280;43052;52.588;13.396;2022-08-16T02:22:16;100272.63;;;19.52;80.44
57192;BME280;43052;52.588;13.396;2022-08-16T02:24:42;100279.69;;;19.51;80.43
57192;BME280;43052;52.588;13.396;2022-08-16T02:27:08;100283.22;;;19.52;80.45
57192;BME280;43052;52.588;13.396;2022-08-16T02:29:34;100275.41;;;19.49;80.33
57192;BME280;43052;52.588;13.396;2022-08-16T02:32:00;100254.06;;;19.34;80.28
57192;BME280;43052;52.588;13.396;2022-08-16T02:34:25;100281.16;;;19.39;80.30
57192;BME280;43052;52.588;13.396;2022-08-16T02:36:50;100285.22;;;19.29;80.27
57192;BME280;43052;52.588;13.396;2022-08-16T02:39:16;100277.56;;;19.23;80.61
57192;BME280;43052;52.588;13.396;2022-08-16T02:41:43;100276.91;;;19.18;80.54
57192;BME280;43052;52.588;13.396;2022-08-16T02:44:11;100277.16;;;19.13;80.81
57192;BME280;43052;52.588;13.396;2022-08-16T02:46:37;100272.03;;;19.10;80.68
57192;BME280;43052;52.588;13.396;2022-08-16T02:49:04;100275.50;;;19.10;80.53
57192;BME280;43052;52.588;13.396;2022-08-16T02:51:30;100283.63;;;19.07;80.49
57192;BME280;43052;52.588;13.396;2022-08-16T02:53:55;100281.91;;;19.06;80.52
57192;BME280;43052;52.588;13.396;2022-08-16T02:56:21;100279.41;;;19.03;80.69
57192;BME280;43052;52.588;13.396;2022-08-16T02:58:50;100286.78;;;18.97;80.57
57192;BME280;43052;52.588;13.396;2022-08-16T03:01:18;100279.94;;;18.92;80.91
57192;BME280;43052;52.588;13.396;2022-08-16T03:03:45;100261.88;;;18.82;80.97
57192;BME280;43052;52.588;13.396;2022-08-16T03:06:10;100294.16;;;18.90;80.81
57192;BME280;43052;52.588;13.396;2022-08-16T03:08:36;100287.06;;;18.90;80.90
57192;BME280;43052;52.588;13.396;2022-08-16T03:11:02;100289.63;;;18.92;80.83
57192;BME280;43052;52.588;13.396;2022-08-16T03:13:27;100297.56;;;18.92;80.79
57192;BME280;43052;52.588;13.396;2022-08-16T03:15:52;100288.91;;;18.88;80.78
57192;BME280;43052;52.588;13.396;2022-08-16T03:18:17;100293.34;;;18.88;81.01
57192;BME280;43052;52.588;13.396;2022-08-16T03:20:43;100290.72;;;18.88;80.90
57192;BME280;43052;52.588;13.396;2022-08-16T03:23:08;100290.06;;;18.83;81.04
57192;BME280;43052;52.588;13.396;2022-08-16T03:25:34;100285.13;;;18.75;81.25
57192;BME280;43052;52.588;13.396;2022-08-16T03:28:00;100293.78;;;18.78;81.20
57192;BME280;43052;52.588;13.396;2022-08-16T03:30:29;100297.28;;;18.79;81.32
57192;BME280;43052;52.588;13.396;2022-08-16T03:32:55;100292.22;;;18.74;81.02
57192;BME280;43052;52.588;13.396;2022-08-16T03:35:24;100293.78;;;18.78;81.47
57192;BME280;43052;52.588;13.396;2022-08-16T03:37:55;100295.50;;;18.79;81.22
57192;BME280;43052;52.588;13.396;2022-08-16T03:40:22;100292.91;;;18.78;81.36
57192;BME280;43052;52.588;13.396;2022-08-16T03:42:47;100293.78;;;18.78;81.20
57192;BME280;43052;52.588;13.396;2022-08-16T03:45:12;100297.38;;;18.77;81.38
57192;BME280;43052;52.588;13.396;2022-08-16T03:47:38;100302.44;;;18.82;81.42
57192;BME280;43052;52.588;13.396;2022-08-16T03:50:05;100297.03;;;18.85;81.15
57192;BME280;43052;52.588;13.396;2022-08-16T03:52:31;100302.38;;;18.84;81.52
57192;BME280;43052;52.588;13.396;2022-08-16T03:54:56;100300.16;;;18.74;81.60
57192;BME280;43052;52.588;13.396;2022-08-16T03:57:21;100311.19;;;18.84;81.70
57192;BME280;43052;52.588;13.396;2022-08-16T03:59:47;100299.66;;;18.85;81.55
57192;BME280;43052;52.588;13.396;2022-08-16T04:02:12;100306.69;;;18.86;81.64
57192;BME280;43052;52.588;13.396;2022-08-16T04:04:37;100308.31;;;18.89;81.56
57192;BME280;43052;52.588;13.396;2022-08-16T04:07:05;100295.34;;;18.83;81.65
57192;BME280;43052;52.588;13.396;2022-08-16T04:09:30;100303.78;;;18.91;81.52
57192;BME280;43052;52.588;13.396;2022-08-16T04:11:56;100316.09;;;18.93;81.70
57192;BME280;43052;52.588;13.396;2022-08-16T04:14:21;100321.31;;;18.95;81.74
57192;BME280;43052;52.588;13.396;2022-08-16T04:16:46;100314.28;;;18.94;81.83
57192;BME280;43052;52.588;13.396;2022-08-16T04:19:11;100318.66;;;18.95;81.85
57192;BME280;43052;52.588;13.396;2022-08-16T04:21:37;100319.44;;;18.97;81.90
57192;BME280;43052;52.588;13.396;2022-08-16T04:24:03;100315.69;;;19.01;82.01
57192;BME280;43052;52.588;13.396;2022-08-16T04:26:28;100321.44;;;19.11;81.80
57192;BME280;43052;52.588;13.396;2022-08-16T04:28:54;100330.34;;;19.28;81.50
57192;BME280;43052;52.588;13.396;2022-08-16T04:31:19;100323.06;;;19.68;80.84
57192;BME280;43052;52.588;13.396;2022-08-16T04:33:44;100324.44;;;20.28;79.99
57192;BME280;43052;52.588;13.396;2022-08-16T04:36:09;100327.97;;;20.78;79.27
57192;BME280;43052;52.588;13.396;2022-08-16T04:38:35;100329.63;;;21.28;78.70
57192;BME280;43052;52.588;13.396;2022-08-16T04:41:00;100327.53;;;21.80;77.44
57192;BME280;43052;52.588;13.396;2022-08-16T04:43:25;100326.44;;;22.28;75.77
57192;BME280;43052;52.588;13.396;2022-08-16T04:45:50;100326.09;;;22.77;74.34
57192;BME280;43052;52.588;13.396;2022-08-16T04:48:16;100321.09;;;23.27;72.83
57192;BME280;43052;52.588;13.396;2022-08-16T04:50:41;100324.78;;;23.79;71.13
57192;BME280;43052;52.588;13.396;2022-08-16T04:53:06;100323.84;;;24.32;69.19
57192;BME280;43052;52.588;13.396;2022-08-16T04:55:32;100325.75;;;24.69;67.32
57192;BME280;43052;52.588;13.396;2022-08-16T04:57:57;100325.97;;;24.79;66.76
57192;BME280;43052;52.588;13.396;2022-08-16T05:00:29;100325.88;;;24.67;66.02
57192;BME280;43052;52.588;13.396;2022-08-16T05:02:57;100331.75;;;24.73;65.63
57192;BME280;43052;52.588;13.396;2022-08-16T05:05:23;100332.38;;;24.63;65.52
57192;BME280;43052;52.588;13.396;2022-08-16T05:07:48;100337.09;;;24.47;65.28
57192;BME280;43052;52.588;13.396;2022-08-16T05:10:14;100338.16;;;24.31;65.01
57192;BME280;43052;52.588;13.396;2022-08-16T05:12:39;100342.75;;;24.03;65.72
57192;BME280;43052;52.588;13.396;2022-08-16T05:15:05;100343.63;;;24.43;65.79
57192;BME280;43052;52.588;13.396;2022-08-16T05:17:33;100339.09;;;25.43;64.14
57192;BME280;43052;52.588;13.396;2022-08-16T05:19:58;100333.41;;;26.31;62.06
57192;BME280;43052;52.588;13.396;2022-08-16T05:22:24;100328.50;;;27.25;59.99
57192;BME280;43052;52.588;13.396;2022-08-16T05:24:49;100333.03;;;28.11;57.15
57192;BME280;43052;52.588;13.396;2022-08-16T05:27:15;100331.91;;;28.75;55.43
57192;BME280;43052;52.588;13.396;2022-08-16T05:29:40;100336.53;;;29.24;54.29
57192;BME280;43052;52.588;13.396;2022-08-16T05:32:06;100340.53;;;29.69;52.01
57192;BME280;43052;52.588;13.396;2022-08-16T05:34:31;100337.06;;;30.16;50.65
57192;BME280;43052;52.588;13.396;2022-08-16T05:36:56;100341.94;;;30.40;49.36
57192;BME280;43052;52.588;13.396;2022-08-16T05:39:23;100335.94;;;30.56;48.92
57192;BME280;43052;52.588;13.396;2022-08-16T05:41:49;100334.94;;;31.03;48.33
57192;BME280;43052;52.588;13.396;2022-08-16T05:44:15;100337.94;;;31.64;46.58
57192;BME280;43052;52.588;13.396;2022-08-16T05:46:41;100326.78;;;32.12;45.61
57192;BME280;43052;52.588;13.396;2022-08-16T05:49:09;100341.53;;;32.78;44.07
57192;BME280;43052;52.588;13.396;2022-08-16T05:51:35;100343.03;;;33.49;42.26
57192;BME280;43052;52.588;13.396;2022-08-16T05:54:00;100341.38;;;33.89;41.13
57192;BME280;43052;52.588;13.396;2022-08-16T05:56:26;100343.25;;;34.36;40.14
57192;BME280;43052;52.588;13.396;2022-08-16T05:58:51;100345.94;;;34.93;39.23
57192;BME280;43052;52.588;13.396;2022-08-16T06:01:16;100342.94;;;35.42;38.41
57192;BME280;43052;52.588;13.396;2022-08-16T06:03:42;100345.75;;;35.87;37.07
57192;BME280;43052;52.588;13.396;2022-08-16T06:06:07;100345.84;;;36.17;36.12
57192;BME280;43052;52.588;13.396;2022-08-16T06:08:32;100344.34;;;36.45;36.05
57192;BME280;43052;52.588;13.396;2022-08-16T06:10:57;100345.59;;;36.94;34.71
57192;BME280;43052;52.588;13.396;2022-08-16T06:13:23;100356.41;;;37.45;34.05
57192;BME280;43052;52.588;13.396;2022-08-16T06:15:49;100358.34;;;38.02;32.93
57192;BME280;43052;52.588;13.396;2022-08-16T06:18:16;100357.81;;;38.13;31.70
57192;BME280;43052;52.588;13.396;2022-08-16T06:20:42;100366.44;;;38.52;30.75
57192;BME280;43052;52.588;13.396;2022-08-16T06:23:07;100360.81;;;38.60;30.85
57192;BME280;43052;52.588;13.396;2022-08-16T06:25:33;100356.97;;;38.96;30.08
57192;BME280;43052;52.588;13.396;2022-08-16T06:27:58;100353.03;;;39.19;29.48
57192;BME280;43052;52.588;13.396;2022-08-16T06:30:23;100352.88;;;39.41;29.46
57192;BME280;43052;52.588;13.396;2022-08-16T06:32:48;100368.06;;;39.84;28.71
57192;BME280;43052;52.588;13.396;2022-08-16T06:35:16;100368.75;;;40.58;27.54
57192;BME280;43052;52.588;13.396;2022-08-16T06:37:41;100379.34;;;41.32;26.02
57192;BME280;43052;52.588;13.396;2022-08-16T06:40:08;100380.53;;;41.75;26.01
57192;BME280;43052;52.588;13.396;2022-08-16T06:42:33;100388.19;;;42.17;25.08
57192;BME280;43052;52.588;13.396;2022-08-16T06:44:58;100383.88;;;42.46;24.26
57192;BME280;43052;52.588;13.396;2022-08-16T06:47:24;100396.84;;;42.76;24.35
57192;BME280;43052;52.588;13.396;2022-08-16T06:49:49;100405.88;;;43.14;23.74
57192;BME280;43052;52.588;13.396;2022-08-16T06:52:14;100405.50;;;43.41;22.58
57192;BME280;43052;52.588;13.396;2022-08-16T06:54:40;100408.63;;;43.56;22.79
57192;BME280;43052;52.588;13.396;2022-08-16T06:57:05;100408.22;;;43.83;22.21
57192;BME280;43052;52.588;13.396;2022-08-16T06:59:32;100401.03;;;44.06;21.91
57192;BME280;43052;52.588;13.396;2022-08-16T07:01:57;100396.47;;;44.47;21.55
57192;BME280;43052;52.588;13.396;2022-08-16T07:04:23;100405.53;;;45.00;20.66
57192;BME280;43052;52.588;13.396;2022-08-16T07:06:49;100409.13;;;45.30;20.27
57192;BME280;43052;52.588;13.396;2022-08-16T07:09:14;100408.81;;;45.43;19.57
57192;BME280;43052;52.588;13.396;2022-08-16T07:11:40;100412.53;;;45.83;19.19
57192;BME280;43052;52.588;13.396;2022-08-16T07:14:06;100409.88;;;46.27;18.94
57192;BME280;43052;52.588;13.396;2022-08-16T07:16:32;100413.50;;;46.72;18.25
57192;BME280;43052;52.588;13.396;2022-08-16T07:18:57;100414.41;;;47.05;18.63
57192;BME280;43052;52.588;13.396;2022-08-16T07:21:24;100416.44;;;47.43;18.36
57192;BME280;43052;52.588;13.396;2022-08-16T07:23:49;100407.88;;;47.77;17.49
57192;BME280;43052;52.588;13.396;2022-08-16T07:26:22;100404.72;;;48.00;16.99
57192;BME280;43052;52.588;13.396;2022-08-16T07:28:48;100409.34;;;48.27;17.19
57192;BME280;43052;52.588;13.396;2022-08-16T07:31:14;100412.84;;;48.66;16.22
57192;BME280;43052;52.588;13.396;2022-08-16T07:33:40;100416.25;;;48.99;16.11
57192;BME280;43052;52.588;13.396;2022-08-16T07:36:07;100414.06;;;49.01;16.11
57192;BME280;43052;52.588;13.396;2022-08-16T07:38:33;100418.31;;;49.45;15.43
57192;BME280;43052;52.588;13.396;2022-08-16T07:40:59;100414.63;;;49.96;15.46
57192;BME280;43052;52.588;13.396;2022-08-16T07:43:25;100417.38;;;50.22;15.21
57192;BME280;43052;52.588;13.396;2022-08-16T07:45:51;100420.53;;;50.70;14.18
57192;BME280;43052;52.588;13.396;2022-08-16T07:48:16;100428.50;;;51.32;14.34
57192;BME280;43052;52.588;13.396;2022-08-16T07:50:42;100433.66;;;51.84;14.03
57192;BME280;43052;52.588;13.396;2022-08-16T07:53:08;100430.03;;;52.08;13.59
57192;BME280;43052;52.588;13.396;2022-08-16T07:55:34;100426.31;;;52.42;13.41
57192;BME280;43052;52.588;13.396;2022-08-16T07:58:00;100428.84;;;52.82;12.76
57192;BME280;43052;52.588;13.396;2022-08-16T08:00:25;100439.50;;;53.37;12.42
57192;BME280;43052;52.588;13.396;2022-08-16T08:02:50;100441.19;;;53.85;11.65
57192;BME280;43052;52.588;13.396;2022-08-16T08:05:16;100438.63;;;53.88;11.66
57192;BME280;43052;52.588;13.396;2022-08-16T08:07:41;100431.38;;;54.15;11.32
57192;BME280;43052;52.588;13.396;2022-08-16T08:10:07;100438.41;;;54.41;11.15
57192;BME280;43052;52.588;13.396;2022-08-16T08:12:33;100429.22;;;54.54;11.64
57192;BME280;43052;52.588;13.396;2022-08-16T08:14:59;100432.22;;;54.58;11.03
57192;BME280;43052;52.588;13.396;2022-08-16T08:17:24;100442.06;;;54.55;10.99
57192;BME280;43052;52.588;13.396;2022-08-16T08:19:50;100442.94;;;54.78;10.90
57192;BME280;43052;52.588;13.396;2022-08-16T08:22:15;100434.72;;;54.82;10.66
57192;BME280;43052;52.588;13.396;2022-08-16T08:24:40;100437.00;;;54.94;10.99
57192;BME280;43052;52.588;13.396;2022-08-16T08:27:06;100442.47;;;54.85;11.13
57192;BME280;43052;52.588;13.396;2022-08-16T08:29:35;100450.22;;;55.02;10.52
57192;BME280;43052;52.588;13.396;2022-08-16T08:32:00;100453.97;;;54.98;11.03
57192;BME280;43052;52.588;13.396;2022-08-16T08:34:26;100454.53;;;54.86;10.48
57192;BME280;43052;52.588;13.396;2022-08-16T08:36:52;100460.13;;;55.22;10.31
57192;BME280;43052;52.588;13.396;2022-08-16T08:39:18;100462.94;;;55.45;10.06
57192;BME280;43052;52.588;13.396;2022-08-16T08:41:44;100453.69;;;55.45;10.52
57192;BME280;43052;52.588;13.396;2022-08-16T08:44:10;100451.28;;;55.52;9.87
57192;BME280;43052;52.588;13.396;2022-08-16T08:46:36;100457.22;;;55.50;10.10
57192;BME280;43052;52.588;13.396;2022-08-16T08:49:02;100449.59;;;55.73;9.28
57192;BME280;43052;52.588;13.396;2022-08-16T08:51:28;100456.66;;;55.48;9.57
57192;BME280;43052;52.588;13.396;2022-08-16T08:53:54;100457.44;;;55.40;9.83
57192;BME280;43052;52.588;13.396;2022-08-16T08:56:20;100452.03;;;55.43;9.60
57192;BME280;43052;52.588;13.396;2022-08-16T08:58:45;100460.00;;;55.82;9.45
57192;BME280;43052;52.588;13.396;2022-08-16T09:01:11;100457.19;;;55.82;9.05
57192;BME280;43052;52.588;13.396;2022-08-16T09:03:38;100457.84;;;55.79;8.87
57192;BME280;43052;52.588;13.396;2022-08-16T09:06:04;100462.56;;;55.92;9.13
57192;BME280;43052;52.588;13.396;2022-08-16T09:08:30;100458.03;;;55.51;9.06
57192;BME280;43052;52.588;13.396;2022-08-16T09:10:56;100463.53;;;55.65;9.82
57192;BME280;43052;52.588;13.396;2022-08-16T09:13:22;100466.56;;;56.09;9.03
57192;BME280;43052;52.588;13.396;2022-08-16T09:15:49;100473.19;;;56.53;8.64
57192;BME280;43052;52.588;13.396;2022-08-16T09:18:15;100465.06;;;56.52;9.01
57192;BME280;43052;52.588;13.396;2022-08-16T09:20:43;100473.31;;;56.48;8.99
57192;BME280;43052;52.588;13.396;2022-08-16T09:23:09;100471.97;;;56.45;9.01
57192;BME280;43052;52.588;13.396;2022-08-16T09:25:34;100458.16;;;56.49;8.78
57192;BME280;43052;52.588;13.396;2022-08-16T09:28:00;100471.69;;;56.47;9.23
57192;BME280;43052;52.588;13.396;2022-08-16T09:30:26;100466.75;;;56.70;9.08
57192;BME280;43052;52.588;13.396;2022-08-16T09:32:51;100462.81;;;57.06;8.35
57192;BME280;43052;52.588;13.396;2022-08-16T09:35:22;100468.28;;;57.47;8.28
57192;BME280;43052;52.588;13.396;2022-08-16T09:37:47;100475.88;;;57.37;8.17
57192;BME280;43052;52.588;13.396;2022-08-16T09:40:12;100459.19;;;57.15;8.35
57192;BME280;43052;52.588;13.396;2022-08-16T09:42:38;100467.44;;;56.67;8.58
57192;BME280;43052;52.588;13.396;2022-08-16T09:45:06;100463.00;;;57.19;8.30
57192;BME280;43052;52.588;13.396;2022-08-16T09:47:35;100460.81;;;57.51;7.64
57192;BME280;43052;52.588;13.396;2022-08-16T09:50:04;100466.78;;;57.49;7.55
57192;BME280;43052;52.588;13.396;2022-08-16T09:52:30;100460.53;;;57.26;8.06
57192;BME280;43052;52.588;13.396;2022-08-16T09:54:55;100456.53;;;57.36;8.24
57192;BME280;43052;52.588;13.396;2022-08-16T09:57:20;100453.25;;;57.34;8.07
57192;BME280;43052;52.588;13.396;2022-08-16T09:59:46;100458.72;;;56.86;7.59
57192;BME280;43052;52.588;13.396;2022-08-16T10:02:11;100464.78;;;56.71;8.46
57192;BME280;43052;52.588;13.396;2022-08-16T10:04:36;100454.53;;;56.57;8.19
57192;BME280;43052;52.588;13.396;2022-08-16T10:07:03;100458.47;;;56.56;8.38
57192;BME280;43052;52.588;13.396;2022-08-16T10:09:28;100459.81;;;56.50;8.03
57192;BME280;43052;52.588;13.396;2022-08-16T10:11:54;100461.28;;;55.07;8.92
57192;BME280;43052;52.588;13.396;2022-08-16T10:14:38;100442.56;;;52.10;10.59
57192;BME280;43052;52.588;13.396;2022-08-16T10:17:04;100448.78;;;49.14;12.43
57192;BME280;43052;52.588;13.396;2022-08-16T10:19:31;100451.75;;;47.30;14.42
57192;BME280;43052;52.588;13.396;2022-08-16T10:21:56;100447.44;;;46.45;15.32
57192;BME280;43052;52.588;13.396;2022-08-16T10:24:22;100446.97;;;45.05;16.17
57192;BME280;43052;52.588;13.396;2022-08-16T10:26:48;100437.59;;;43.59;17.91
57192;BME280;43052;52.588;13.396;2022-08-16T10:29:14;100439.06;;;42.45;18.74
57192;BME280;43052;52.588;13.396;2022-08-16T10:31:39;100440.84;;;41.56;19.99
57192;BME280;43052;52.588;13.396;2022-08-16T10:34:05;100443.03;;;40.88;20.85
57192;BME280;43052;52.588;13.396;2022-08-16T10:36:30;100434.78;;;40.30;21.02
57192;BME280;43052;52.588;13.396;2022-08-16T10:38:55;100438.78;;;39.80;21.31
57192;BME280;43052;52.588;13.396;2022-08-16T10:41:21;100442.38;;;39.12;21.79
57192;BME280;43052;52.588;13.396;2022-08-16T10:43:48;100447.56;;;38.58;22.44
57192;BME280;43052;52.588;13.396;2022-08-16T10:46:14;100441.88;;;38.24;23.05
57192;BME280;43052;52.588;13.396;2022-08-16T10:48:42;100439.31;;;37.94;23.37
57192;BME280;43052;52.588;13.396;2022-08-16T10:51:08;100437.94;;;37.62;23.96
57192;BME280;43052;52.588;13.396;2022-08-16T10:53:35;100436.13;;;37.11;24.30
57192;BME280;43052;52.588;13.396;2022-08-16T10:56:03;100445.34;;;36.65;25.15
57192;BME280;43052;52.588;13.396;2022-08-16T10:58:29;100446.34;;;36.34;26.26
57192;BME280;43052;52.588;13.396;2022-08-16T11:00:54;100440.69;;;36.35;24.93
57192;BME280;43052;52.588;13.396;2022-08-16T11:03:20;100435.66;;;36.47;24.97
57192;BME280;43052;52.588;13.396;2022-08-16T11:05:46;100427.59;;;36.54;24.62
57192;BME280;43052;52.588;13.396;2022-08-16T11:08:11;100439.69;;;36.81;25.13
57192;BME280;43052;52.588;13.396;2022-08-16T11:10:43;100435.94;;;36.82;25.17
57192;BME280;43052;52.588;13.396;2022-08-16T11:13:11;100431.16;;;36.69;24.86
57192;BME280;43052;52.588;13.396;2022-08-16T11:15:37;100433.03;;;36.54;25.47
57192;BME280;43052;52.588;13.396;2022-08-16T11:18:03;100438.34;;;36.17;25.48
57192;BME280;43052;52.588;13.396;2022-08-16T11:20:28;100438.34;;;36.17;25.60
57192;BME280;43052;52.588;13.396;2022-08-16T11:22:54;100441.34;;;36.22;24.97
57192;BME280;43052;52.588;13.396;2022-08-16T11:25:22;100444.03;;;36.07;25.70
57192;BME280;43052;52.588;13.396;2022-08-16T11:27:47;100440.06;;;35.95;26.26
57192;BME280;43052;52.588;13.396;2022-08-16T11:30:14;100439.22;;;35.95;26.17
57192;BME280;43052;52.588;13.396;2022-08-16T11:32:41;100446.81;;;35.99;26.00
57192;BME280;43052;52.588;13.396;2022-08-16T11:35:12;100434.47;;;35.88;25.69
57192;BME280;43052;52.588;13.396;2022-08-16T11:37:38;100437.16;;;35.73;25.55
57192;BME280;43052;52.588;13.396;2022-08-16T11:40:05;100441.06;;;35.71;25.73
57192;BME280;43052;52.588;13.396;2022-08-16T11:42:31;100441.56;;;35.51;26.01
57192;BME280;43052;52.588;13.396;2022-08-16T11:44:56;100446.25;;;35.57;26.74
57192;BME280;43052;52.588;13.396;2022-08-16T11:47:21;100440.88;;;35.72;26.41
57192;BME280;43052;52.588;13.396;2022-08-16T11:49:46;100448.00;;;35.50;26.47
57192;BME280;43052;52.588;13.396;2022-08-16T11:52:12;100439.09;;;35.33;26.60
57192;BME280;43052;52.588;13.396;2022-08-16T11:54:37;100442.06;;;35.15;26.86
57192;BME280;43052;52.588;13.396;2022-08-16T11:57:04;100444.50;;;35.10;26.51
57192;BME280;43052;52.588;13.396;2022-08-16T11:59:29;100439.63;;;34.97;26.85
57192;BME280;43052;52.588;13.396;2022-08-16T12:01:57;100448.00;;;34.71;27.03
57192;BME280;43052;52.588;13.396;2022-08-16T12:04:23;100425.84;;;34.50;27.93
57192;BME280;43052;52.588;13.396;2022-08-16T12:06:48;100429.53;;;34.66;28.41
57192;BME280;43052;52.588;13.396;2022-08-16T12:09:14;100433.25;;;34.65;27.95
57192;BME280;43052;52.588;13.396;2022-08-16T12:11:39;100443.59;;;34.70;27.58
57192;BME280;43052;52.588;13.396;2022-08-16T12:14:05;100442.03;;;34.75;27.21
57192;BME280;43052;52.588;13.396;2022-08-16T12:16:32;100430.97;;;34.45;27.59
57192;BME280;43052;52.588;13.396;2022-08-16T12:18:58;100445.22;;;34.14;28.31
57192;BME280;43052;52.588;13.396;2022-08-16T12:21:23;100442.34;;;34.24;28.22
57192;BME280;43052;52.588;13.396;2022-08-16T12:23:49;100445.03;;;34.41;27.65
57192;BME280;43052;52.588;13.396;2022-08-16T12:26:15;100440.28;;;34.51;27.43
57192;BME280;43052;52.588;13.396;2022-08-16T12:28:41;100439.56;;;34.57;28.00
57192;BME280;43052;52.588;13.396;2022-08-16T12:31:06;100442.25;;;34.65;28.17
57192;BME280;43052;52.588;13.396;2022-08-16T12:33:32;100442.25;;;34.65;27.93
57192;BME280;43052;52.588;13.396;2022-08-16T12:35:57;100439.72;;;34.64;27.84
57192;BME280;43052;52.588;13.396;2022-08-16T12:38:22;100441.06;;;34.68;27.77